sensor_id;sensor_type;location;lat;lon;timestamp;temperature;humidity
14755;DHT22;7469;50.906;6.952;2023-05-07T00:00:46;15.30;99.90
14755;DHT22;7469;50.906;6.952;2023-05-07T00:03:13;15.30;99.90
14755;DHT22;7469;50.906;6.952;2023-05-07T00:05:42;15.30;99.90
14755;DHT22;7469;50.906;6.952;2023-05-07T00:08:10;15.30;99.90
14755;DHT22;7469;50.906;6.952;2023-05-07T00:10:39;15.30;99.90
14755;DHT22;7469;50.906;6.952;2023-05-07T00:13:08;15.30;99.90
14755;DHT22;7469;50.906;6.952;2023-05-07T00:15:37;15.30;99.90
14755;DHT22;7469;50.906;6.952;2023-05-07T00:18:05;15.30;99.90
14755;DHT22;7469;50.906;6.952;2023-05-07T00:20:33;15.30;99.90
14755;DHT22;7469;50.906;6.952;2023-05-07T00:23:02;15.30;99.90
14755;DHT22;7469;50.906;6.952;2023-05-07T00:25:30;15.20;99.90
14755;DHT22;7469;50.906;6.952;2023-05-07T00:27:58;15.30;99.90
14755;DHT22;7469;50.906;6.952;2023-05-07T00:30:31;15.20;99.90
14755;DHT22;7469;50.906;6.952;2023-05-07T00:32:59;15.20;99.90
14755;DHT22;7469;50.906;6.952;2023-05-07T00:35:28;15.20;99.90
14755;DHT22;7469;50.906;6.952;2023-05-07T00:37:57;15.20;99.90
14755;DHT22;7469;50.906;6.952;2023-05-07T00:40:25;15.20;99.90
14755;DHT22;7469;50.906;6.952;2023-05-07T00:42:53;15.20;99.90
14755;DHT22;7469;50.906;6.952;2023-05-07T00:45:26;15.20;99.90
14755;DHT22;7469;50.906;6.952;2023-05-07T00:47:58;15.20;99.90
14755;DHT22;7469;50.906;6.952;2023-05-07T00:50:27;15.20;99.90
14755;DHT22;7469;50.906;6.952;2023-05-07T00:52:56;15.20;99.90
14755;DHT22;7469;50.906;6.952;2023-05-07T00:55:24;15.20;99.90
14755;DHT22;7469;50.906;6.952;2023-05-07T00:57:52;15.10;99.90
14755;DHT22;7469;50.906;6.952;2023-05-07T01:00:21;15.10;99.90
14755;DHT22;7469;50.906;6.952;2023-05-07T01:02:48;15.10;99.90
14755;DHT22;7469;50.906;6.952;2023-05-07T01:05:21;15.00;99.90
14755;DHT22;7469;50.906;6.952;2023-05-07T01:07:52;15.00;99.90
14755;DHT22;7469;50.906;6.952;2023-05-07T01:10:22;15.00;99.90
14755;DHT22;7469;50.906;6.952;2023-05-07T01:12:50;15.00;99.90
14755;DHT22;7469;50.906;6.952;2023-05-07T01:15:19;14.90;99.90
14755;DHT22;7469;50.906;6.952;2023-05-07T01:17:48;14.90;99.90
14755;DHT22;7469;50.906;6.952;2023-05-07T01:20:18;14.90;99.90
14755;DHT22;7469;50.906;6.952;2023-05-07T01:22:47;14.90;99.90
14755;DHT22;7469;50.906;6.952;2023-05-07T01:25:16;14.90;99.90
14755;DHT22;7469;50.906;6.952;2023-05-07T01:27:44;14.90;99.90
14755;DHT22;7469;50.906;6.952;2023-05-07T01:30:13;14.90;99.90
14755;DHT22;7469;50.906;6.952;2023-05-07T01:32:45;14.90;99.90
14755;DHT22;7469;50.906;6.952;2023-05-07T01:35:18;14.90;99.90
14755;DHT22;7469;50.906;6.952;2023-05-07T01:37:49;14.90;99.90
14755;DHT22;7469;50.906;6.952;2023-05-07T01:40:17;14.90;99.90
14755;DHT22;7469;50.906;6.952;2023-05-07T01:42:46;14.90;99.90
14755;DHT22;7469;50.906;6.952;2023-05-07T01:45:14;14.90;99.90
14755;DHT22;7469;50.906;6.952;2023-05-07T01:47:42;14.90;99.90
14755;DHT22;7469;50.906;6.952;2023-05-07T01:50:12;14.90;99.90
14755;DHT22;7469;50.906;6.952;2023-05-07T01:52:40;14.90;99.90
14755;DHT22;7469;50.906;6.952;2023-05-07T01:55:10;14.90;99.90
14755;DHT22;7469;50.906;6.952;2023-05-07T01:57:38;14.90;99.90
14755;DHT22;7469;50.906;6.952;2023-05-07T02:00:07;14.90;99.90
14755;DHT22;7469;50.906;6.952;2023-05-07T02:02:36;14.90;99.90
14755;DHT22;7469;50.906;6.952;2023-05-07T02:05:06;14.90;99.90
14755;DHT22;7469;50.906;6.952;2023-05-07T02:07:34;14.80;99.90
14755;DHT22;7469;50.906;6.952;2023-05-07T02:10:02;14.80;99.90
14755;DHT22;7469;50.906;6.952;2023-05-07T02:12:32;14.80;99.90
14755;DHT22;7469;50.906;6.952;2023-05-07T02:15:00;14.80;99.90
14755;DHT22;7469;50.906;6.952;2023-05-07T02:17:28;14.80;99.90
14755;DHT22;7469;50.906;6.952;2023-05-07T02:19:58;14.80;99.90
14755;DHT22;7469;50.906;6.952;2023-05-07T02:22:26;14.80;99.90
14755;DHT22;7469;50.906;6.952;2023-05-07T02:24:54;14.80;99.90
14755;DHT22;7469;50.906;6.952;2023-05-07T02:27:22;14.70;99.90
14755;DHT22;7469;50.906;6.952;2023-05-07T02:29:51;14.70;99.90
14755;DHT22;7469;50.906;6.952;2023-05-07T02:32:19;14.70;99.90
14755;DHT22;7469;50.906;6.952;2023-05-07T02:34:50;14.70;99.90
14755;DHT22;7469;50.906;6.952;2023-05-07T02:37:18;14.70;99.90
14755;DHT22;7469;50.906;6.952;2023-05-07T02:39:46;14.70;99.90
14755;DHT22;7469;50.906;6.952;2023-05-07T02:42:15;14.60;99.90
14755;DHT22;7469;50.906;6.952;2023-05-07T02:44:43;14.60;99.90
14755;DHT22;7469;50.906;6.952;2023-05-07T02:47:14;14.60;99.90
14755;DHT22;7469;50.906;6.952;2023-05-07T02:49:42;14.60;99.90
14755;DHT22;7469;50.906;6.952;2023-05-07T02:52:10;14.60;99.90
14755;DHT22;7469;50.906;6.952;2023-05-07T02:54:38;14.60;99.90
14755;DHT22;7469;50.906;6.952;2023-05-07T02:57:06;14.60;99.90
14755;DHT22;7469;50.906;6.952;2023-05-07T02:59:34;14.60;99.90
14755;DHT22;7469;50.906;6.952;2023-05-07T03:02:02;14.60;99.90
14755;DHT22;7469;50.906;6.952;2023-05-07T03:04:31;14.60;99.90
14755;DHT22;7469;50.906;6.952;2023-05-07T03:06:59;14.60;99.90
14755;DHT22;7469;50.906;6.952;2023-05-07T03:09:27;14.60;99.90
14755;DHT22;7469;50.906;6.952;2023-05-07T03:11:55;14.60;99.90
14755;DHT22;7469;50.906;6.952;2023-05-07T03:14:23;14.60;99.90
14755;DHT22;7469;50.906;6.952;2023-05-07T03:16:51;14.60;99.90
14755;DHT22;7469;50.906;6.952;2023-05-07T03:19:19;14.60;99.90
14755;DHT22;7469;50.906;6.952;2023-05-07T03:21:49;14.60;99.90
14755;DHT22;7469;50.906;6.952;2023-05-07T03:24:16;14.60;99.90
14755;DHT22;7469;50.906;6.952;2023-05-07T03:26:44;14.60;99.90
14755;DHT22;7469;50.906;6.952;2023-05-07T03:29:12;14.60;99.90
14755;DHT22;7469;50.906;6.952;2023-05-07T03:31:40;14.50;99.90
14755;DHT22;7469;50.906;6.952;2023-05-07T03:34:08;14.60;99.90
14755;DHT22;7469;50.906;6.952;2023-05-07T03:36:36;14.50;99.90
14755;DHT22;7469;50.906;6.952;2023-05-07T03:39:05;14.50;99.90
14755;DHT22;7469;50.906;6.952;2023-05-07T03:41:33;14.50;99.90
14755;DHT22;7469;50.906;6.952;2023-05-07T03:44:02;14.50;99.90
14755;DHT22;7469;50.906;6.952;2023-05-07T03:46:30;14.50;99.90
14755;DHT22;7469;50.906;6.952;2023-05-07T03:48:59;14.50;99.90
14755;DHT22;7469;50.906;6.952;2023-05-07T03:51:27;14.50;99.90
14755;DHT22;7469;50.906;6.952;2023-05-07T03:53:55;14.40;99.90
14755;DHT22;7469;50.906;6.952;2023-05-07T03:56:25;14.40;99.90
14755;DHT22;7469;50.906;6.952;2023-05-07T03:58:54;14.40;99.90
14755;DHT22;7469;50.906;6.952;2023-05-07T04:01:22;14.40;99.90
14755;DHT22;7469;50.906;6.952;2023-05-07T04:03:50;14.40;99.90
14755;DHT22;7469;50.906;6.952;2023-05-07T04:06:18;14.30;99.90
14755;DHT22;7469;50.906;6.952;2023-05-07T04:08:46;14.30;99.90
14755;DHT22;7469;50.906;6.952;2023-05-07T04:11:14;14.30;99.90
14755;DHT22;7469;50.906;6.952;2023-05-07T04:13:43;14.30;99.90
14755;DHT22;7469;50.906;6.952;2023-05-07T04:16:11;14.30;99.90
14755;DHT22;7469;50.906;6.952;2023-05-07T04:18:39;14.30;99.90
14755;DHT22;7469;50.906;6.952;2023-05-07T04:21:14;14.30;99.90
14755;DHT22;7469;50.906;6.952;2023-05-07T04:23:42;14.40;99.90
14755;DHT22;7469;50.906;6.952;2023-05-07T04:26:10;14.40;99.90
14755;DHT22;7469;50.906;6.952;2023-05-07T04:28:38;14.40;99.90
14755;DHT22;7469;50.906;6.952;2023-05-07T04:31:08;14.40;99.90
14755;DHT22;7469;50.906;6.952;2023-05-07T04:33:36;14.40;99.90
14755;DHT22;7469;50.906;6.952;2023-05-07T04:36:04;14.50;99.90
14755;DHT22;7469;50.906;6.952;2023-05-07T04:38:32;14.50;99.90
14755;DHT22;7469;50.906;6.952;2023-05-07T04:41:03;14.60;99.90
14755;DHT22;7469;50.906;6.952;2023-05-07T04:43:31;14.60;99.90
14755;DHT22;7469;50.906;6.952;2023-05-07T04:45:59;14.60;99.90
14755;DHT22;7469;50.906;6.952;2023-05-07T04:48:29;14.70;99.90
14755;DHT22;7469;50.906;6.952;2023-05-07T04:50:57;14.70;99.90
14755;DHT22;7469;50.906;6.952;2023-05-07T04:53:25;14.70;99.90
14755;DHT22;7469;50.906;6.952;2023-05-07T04:55:55;14.80;99.90
14755;DHT22;7469;50.906;6.952;2023-05-07T04:58:24;14.80;99.90
14755;DHT22;7469;50.906;6.952;2023-05-07T05:00:52;14.90;99.90
14755;DHT22;7469;50.906;6.952;2023-05-07T05:03:20;14.90;99.90
14755;DHT22;7469;50.906;6.952;2023-05-07T05:05:50;14.90;99.90
14755;DHT22;7469;50.906;6.952;2023-05-07T05:08:19;15.00;99.90
14755;DHT22;7469;50.906;6.952;2023-05-07T05:10:47;15.10;99.90
14755;DHT22;7469;50.906;6.952;2023-05-07T05:13:16;15.10;99.90
14755;DHT22;7469;50.906;6.952;2023-05-07T05:15:45;15.10;99.90
14755;DHT22;7469;50.906;6.952;2023-05-07T05:18:13;15.20;99.90
14755;DHT22;7469;50.906;6.952;2023-05-07T05:20:41;15.30;99.90
14755;DHT22;7469;50.906;6.952;2023-05-07T05:23:10;15.30;99.90
14755;DHT22;7469;50.906;6.952;2023-05-07T05:25:38;15.40;99.90
14755;DHT22;7469;50.906;6.952;2023-05-07T05:28:07;15.40;99.90
14755;DHT22;7469;50.906;6.952;2023-05-07T05:30:35;15.50;99.90
14755;DHT22;7469;50.906;6.952;2023-05-07T05:33:03;15.50;99.90
14755;DHT22;7469;50.906;6.952;2023-05-07T05:35:31;15.60;99.90
14755;DHT22;7469;50.906;6.952;2023-05-07T05:37:59;15.70;99.90
14755;DHT22;7469;50.906;6.952;2023-05-07T05:40:28;15.80;99.90
14755;DHT22;7469;50.906;6.952;2023-05-07T05:42:56;15.80;99.90
14755;DHT22;7469;50.906;6.952;2023-05-07T05:45:25;15.90;99.90
14755;DHT22;7469;50.906;6.952;2023-05-07T05:47:53;16.00;99.90
14755;DHT22;7469;50.906;6.952;2023-05-07T05:50:21;16.10;99.90
14755;DHT22;7469;50.906;6.952;2023-05-07T05:52:49;16.20;99.90
14755;DHT22;7469;50.906;6.952;2023-05-07T05:55:17;16.20;99.90
14755;DHT22;7469;50.906;6.952;2023-05-07T05:57:46;16.30;99.90
14755;DHT22;7469;50.906;6.952;2023-05-07T06:00:15;16.40;99.90
14755;DHT22;7469;50.906;6.952;2023-05-07T06:02:44;16.40;99.90
14755;DHT22;7469;50.906;6.952;2023-05-07T06:05:12;16.50;99.90
14755;DHT22;7469;50.906;6.952;2023-05-07T06:07:40;16.50;99.90
14755;DHT22;7469;50.906;6.952;2023-05-07T06:10:08;16.60;99.90
14755;DHT22;7469;50.906;6.952;2023-05-07T06:12:37;16.70;99.90
14755;DHT22;7469;50.906;6.952;2023-05-07T06:15:07;16.80;99.90
14755;DHT22;7469;50.906;6.952;2023-05-07T06:17:35;16.90;99.90
14755;DHT22;7469;50.906;6.952;2023-05-07T06:20:04;17.00;99.90
14755;DHT22;7469;50.906;6.952;2023-05-07T06:22:32;17.10;99.90
14755;DHT22;7469;50.906;6.952;2023-05-07T06:25:00;17.20;99.90
14755;DHT22;7469;50.906;6.952;2023-05-07T06:27:28;17.30;99.90
14755;DHT22;7469;50.906;6.952;2023-05-07T06:29:56;17.40;99.90
14755;DHT22;7469;50.906;6.952;2023-05-07T06:32:25;17.50;99.90
14755;DHT22;7469;50.906;6.952;2023-05-07T06:34:53;17.60;99.90
14755;DHT22;7469;50.906;6.952;2023-05-07T06:37:22;17.70;99.90
14755;DHT22;7469;50.906;6.952;2023-05-07T06:39:50;17.80;99.90
14755;DHT22;7469;50.906;6.952;2023-05-07T06:42:18;17.90;99.90
14755;DHT22;7469;50.906;6.952;2023-05-07T06:44:46;17.90;99.90
14755;DHT22;7469;50.906;6.952;2023-05-07T06:47:14;18.00;99.90
14755;DHT22;7469;50.906;6.952;2023-05-07T06:49:43;18.10;99.90
14755;DHT22;7469;50.906;6.952;2023-05-07T06:52:11;18.20;99.90
14755;DHT22;7469;50.906;6.952;2023-05-07T06:54:39;18.20;99.90
14755;DHT22;7469;50.906;6.952;2023-05-07T06:57:07;18.20;99.90
14755;DHT22;7469;50.906;6.952;2023-05-07T06:59:35;18.20;99.90
14755;DHT22;7469;50.906;6.952;2023-05-07T07:02:03;18.20;99.90
14755;DHT22;7469;50.906;6.952;2023-05-07T07:04:31;18.30;99.90
14755;DHT22;7469;50.906;6.952;2023-05-07T07:07:00;18.30;99.90
14755;DHT22;7469;50.906;6.952;2023-05-07T07:09:28;18.30;99.90
14755;DHT22;7469;50.906;6.952;2023-05-07T07:11:56;18.40;99.90
14755;DHT22;7469;50.906;6.952;2023-05-07T07:14:24;18.40;99.90
14755;DHT22;7469;50.906;6.952;2023-05-07T07:16:52;18.50;99.90
14755;DHT22;7469;50.906;6.952;2023-05-07T07:19:20;18.60;99.90
14755;DHT22;7469;50.906;6.952;2023-05-07T07:21:48;18.60;99.90
14755;DHT22;7469;50.906;6.952;2023-05-07T07:24:17;18.60;99.90
14755;DHT22;7469;50.906;6.952;2023-05-07T07:26:48;18.70;99.90
14755;DHT22;7469;50.906;6.952;2023-05-07T07:29:16;18.90;99.90
14755;DHT22;7469;50.906;6.952;2023-05-07T07:31:45;19.00;99.90
14755;DHT22;7469;50.906;6.952;2023-05-07T07:34:13;19.10;99.90
14755;DHT22;7469;50.906;6.952;2023-05-07T07:36:41;19.30;99.90
14755;DHT22;7469;50.906;6.952;2023-05-07T07:39:12;19.50;99.90
14755;DHT22;7469;50.906;6.952;2023-05-07T07:41:42;19.70;99.90
14755;DHT22;7469;50.906;6.952;2023-05-07T07:44:10;19.90;99.90
14755;DHT22;7469;50.906;6.952;2023-05-07T07:46:42;20.00;99.90
14755;DHT22;7469;50.906;6.952;2023-05-07T07:49:10;20.20;99.90
14755;DHT22;7469;50.906;6.952;2023-05-07T07:51:38;20.30;99.90
14755;DHT22;7469;50.906;6.952;2023-05-07T07:54:06;20.40;99.90
14755;DHT22;7469;50.906;6.952;2023-05-07T07:56:34;20.50;99.90
14755;DHT22;7469;50.906;6.952;2023-05-07T07:59:03;20.60;99.90
14755;DHT22;7469;50.906;6.952;2023-05-07T08:01:31;20.60;99.90
14755;DHT22;7469;50.906;6.952;2023-05-07T08:03:59;20.60;99.90
14755;DHT22;7469;50.906;6.952;2023-05-07T08:06:30;20.60;99.90
14755;DHT22;7469;50.906;6.952;2023-05-07T08:08:57;20.70;99.90
14755;DHT22;7469;50.906;6.952;2023-05-07T08:11:25;20.70;99.90
14755;DHT22;7469;50.906;6.952;2023-05-07T08:13:54;20.70;99.90
14755;DHT22;7469;50.906;6.952;2023-05-07T08:16:23;20.70;99.90
14755;DHT22;7469;50.906;6.952;2023-05-07T08:18:51;20.90;99.90
14755;DHT22;7469;50.906;6.952;2023-05-07T08:21:19;20.90;99.90
14755;DHT22;7469;50.906;6.952;2023-05-07T08:23:47;20.90;99.90
14755;DHT22;7469;50.906;6.952;2023-05-07T08:26:15;20.90;99.90
14755;DHT22;7469;50.906;6.952;2023-05-07T08:28:43;20.90;99.90
14755;DHT22;7469;50.906;6.952;2023-05-07T08:31:11;20.80;99.90
14755;DHT22;7469;50.906;6.952;2023-05-07T08:33:41;20.80;99.90
14755;DHT22;7469;50.906;6.952;2023-05-07T08:36:09;20.60;99.90
14755;DHT22;7469;50.906;6.952;2023-05-07T08:38:38;20.60;99.90
14755;DHT22;7469;50.906;6.952;2023-05-07T08:41:09;20.50;99.90
14755;DHT22;7469;50.906;6.952;2023-05-07T08:43:38;20.60;99.90
14755;DHT22;7469;50.906;6.952;2023-05-07T08:46:09;20.80;99.90
14755;DHT22;7469;50.906;6.952;2023-05-07T08:48:38;21.00;99.90
14755;DHT22;7469;50.906;6.952;2023-05-07T08:51:12;21.30;99.90
14755;DHT22;7469;50.906;6.952;2023-05-07T08:53:40;21.60;99.90
14755;DHT22;7469;50.906;6.952;2023-05-07T08:56:09;22.00;99.90
14755;DHT22;7469;50.906;6.952;2023-05-07T08:58:37;22.40;99.90
14755;DHT22;7469;50.906;6.952;2023-05-07T09:01:07;22.80;99.90
14755;DHT22;7469;50.906;6.952;2023-05-07T09:03:37;23.20;99.90
14755;DHT22;7469;50.906;6.952;2023-05-07T09:06:07;23.60;99.90
14755;DHT22;7469;50.906;6.952;2023-05-07T09:08:35;24.00;99.90
14755;DHT22;7469;50.906;6.952;2023-05-07T09:11:03;24.40;99.90
14755;DHT22;7469;50.906;6.952;2023-05-07T09:13:31;24.90;99.90
14755;DHT22;7469;50.906;6.952;2023-05-07T09:16:10;25.30;99.90
14755;DHT22;7469;50.906;6.952;2023-05-07T09:18:42;25.60;99.90
14755;DHT22;7469;50.906;6.952;2023-05-07T09:21:14;26.20;99.90
14755;DHT22;7469;50.906;6.952;2023-05-07T09:23:42;27.50;99.90
14755;DHT22;7469;50.906;6.952;2023-05-07T09:26:10;29.10;99.60
14755;DHT22;7469;50.906;6.952;2023-05-07T09:28:39;30.80;95.70
14755;DHT22;7469;50.906;6.952;2023-05-07T09:31:09;32.50;90.10
14755;DHT22;7469;50.906;6.952;2023-05-07T09:33:37;34.30;75.90
14755;DHT22;7469;50.906;6.952;2023-05-07T09:36:07;35.80;60.10
14755;DHT22;7469;50.906;6.952;2023-05-07T09:38:37;37.20;50.70
14755;DHT22;7469;50.906;6.952;2023-05-07T09:41:07;38.40;42.70
14755;DHT22;7469;50.906;6.952;2023-05-07T09:43:35;39.20;36.90
14755;DHT22;7469;50.906;6.952;2023-05-07T09:46:07;40.10;32.70
14755;DHT22;7469;50.906;6.952;2023-05-07T09:48:37;40.60;28.90
14755;DHT22;7469;50.906;6.952;2023-05-07T09:51:15;40.90;26.50
14755;DHT22;7469;50.906;6.952;2023-05-07T09:53:47;41.00;24.90
14755;DHT22;7469;50.906;6.952;2023-05-07T09:56:16;40.50;24.00
14755;DHT22;7469;50.906;6.952;2023-05-07T09:58:46;40.30;23.60
14755;DHT22;7469;50.906;6.952;2023-05-07T10:01:14;40.30;23.50
14755;DHT22;7469;50.906;6.952;2023-05-07T10:03:46;40.60;22.90
14755;DHT22;7469;50.906;6.952;2023-05-07T10:06:14;40.10;22.20
14755;DHT22;7469;50.906;6.952;2023-05-07T10:08:43;39.20;22.20
14755;DHT22;7469;50.906;6.952;2023-05-07T10:11:13;38.20;22.50
14755;DHT22;7469;50.906;6.952;2023-05-07T10:13:43;37.10;23.40
14755;DHT22;7469;50.906;6.952;2023-05-07T10:16:11;36.30;24.00
14755;DHT22;7469;50.906;6.952;2023-05-07T10:18:40;35.40;24.60
14755;DHT22;7469;50.906;6.952;2023-05-07T10:21:11;34.70;25.30
14755;DHT22;7469;50.906;6.952;2023-05-07T10:23:41;34.10;26.20
14755;DHT22;7469;50.906;6.952;2023-05-07T10:26:14;34.60;26.40
14755;DHT22;7469;50.906;6.952;2023-05-07T10:28:45;35.70;25.70
14755;DHT22;7469;50.906;6.952;2023-05-07T10:31:25;36.30;25.00
14755;DHT22;7469;50.906;6.952;2023-05-07T10:33:56;36.10;24.60
14755;DHT22;7469;50.906;6.952;2023-05-07T10:36:26;35.80;24.50
14755;DHT22;7469;50.906;6.952;2023-05-07T10:38:55;35.60;24.80
14755;DHT22;7469;50.906;6.952;2023-05-07T10:41:24;35.00;25.10
14755;DHT22;7469;50.906;6.952;2023-05-07T10:43:52;34.70;25.30
14755;DHT22;7469;50.906;6.952;2023-05-07T10:46:21;34.40;25.70
14755;DHT22;7469;50.906;6.952;2023-05-07T10:49:09;34.30;26.00
14755;DHT22;7469;50.906;6.952;2023-05-07T10:51:38;34.40;25.80
14755;DHT22;7469;50.906;6.952;2023-05-07T10:54:19;34.00;26.00
14755;DHT22;7469;50.906;6.952;2023-05-07T10:56:49;33.70;26.60
14755;DHT22;7469;50.906;6.952;2023-05-07T10:59:32;33.30;27.20
14755;DHT22;7469;50.906;6.952;2023-05-07T11:02:01;33.00;27.60
14755;DHT22;7469;50.906;6.952;2023-05-07T11:04:31;32.90;28.20
14755;DHT22;7469;50.906;6.952;2023-05-07T11:07:35;33.20;28.30
14755;DHT22;7469;50.906;6.952;2023-05-07T11:10:04;33.50;27.70
14755;DHT22;7469;50.906;6.952;2023-05-07T11:12:53;33.70;27.50
14755;DHT22;7469;50.906;6.952;2023-05-07T11:18:13;33.70;27.60
14755;DHT22;7469;50.906;6.952;2023-05-07T11:20:49;33.70;27.50
14755;DHT22;7469;50.906;6.952;2023-05-07T11:26:45;32.80;27.70
14755;DHT22;7469;50.906;6.952;2023-05-07T11:29:16;32.50;27.70
14755;DHT22;7469;50.906;6.952;2023-05-07T11:31:49;32.40;27.90
14755;DHT22;7469;50.906;6.952;2023-05-07T11:34:21;32.10;27.60
14755;DHT22;7469;50.906;6.952;2023-05-07T11:36:50;32.00;27.50
14755;DHT22;7469;50.906;6.952;2023-05-07T11:39:28;31.70;27.80
14755;DHT22;7469;50.906;6.952;2023-05-07T11:41:57;31.40;28.00
14755;DHT22;7469;50.906;6.952;2023-05-07T11:44:40;31.10;28.30
14755;DHT22;7469;50.906;6.952;2023-05-07T11:47:10;30.90;28.60
14755;DHT22;7469;50.906;6.952;2023-05-07T11:49:38;30.80;28.50
14755;DHT22;7469;50.906;6.952;2023-05-07T11:52:07;30.70;28.90
14755;DHT22;7469;50.906;6.952;2023-05-07T11:54:37;30.50;29.10
14755;DHT22;7469;50.906;6.952;2023-05-07T11:57:05;30.10;29.20
14755;DHT22;7469;50.906;6.952;2023-05-07T11:59:40;29.70;29.60
14755;DHT22;7469;50.906;6.952;2023-05-07T12:02:08;29.30;30.00
14755;DHT22;7469;50.906;6.952;2023-05-07T12:04:38;28.90;30.60
14755;DHT22;7469;50.906;6.952;2023-05-07T12:07:06;28.50;31.00
14755;DHT22;7469;50.906;6.952;2023-05-07T12:09:38;28.10;31.70
14755;DHT22;7469;50.906;6.952;2023-05-07T12:12:07;27.80;32.40
14755;DHT22;7469;50.906;6.952;2023-05-07T12:14:39;27.60;32.80
14755;DHT22;7469;50.906;6.952;2023-05-07T12:17:08;27.40;33.10
14755;DHT22;7469;50.906;6.952;2023-05-07T12:19:37;27.20;33.40
14755;DHT22;7469;50.906;6.952;2023-05-07T12:22:07;27.10;33.50
14755;DHT22;7469;50.906;6.952;2023-05-07T12:24:43;27.00;33.70
14755;DHT22;7469;50.906;6.952;2023-05-07T12:27:12;26.90;33.90
14755;DHT22;7469;50.906;6.952;2023-05-07T12:29:46;26.80;34.10
14755;DHT22;7469;50.906;6.952;2023-05-07T12:32:15;26.70;34.40
14755;DHT22;7469;50.906;6.952;2023-05-07T12:34:43;26.60;34.50
14755;DHT22;7469;50.906;6.952;2023-05-07T12:37:11;26.50;34.70
14755;DHT22;7469;50.906;6.952;2023-05-07T12:39:44;26.30;35.10
14755;DHT22;7469;50.906;6.952;2023-05-07T12:42:15;26.10;35.60
14755;DHT22;7469;50.906;6.952;2023-05-07T12:44:46;26.00;36.00
14755;DHT22;7469;50.906;6.952;2023-05-07T12:47:15;25.90;36.30
14755;DHT22;7469;50.906;6.952;2023-05-07T12:49:43;25.80;36.60
14755;DHT22;7469;50.906;6.952;2023-05-07T12:52:12;25.70;36.70
14755;DHT22;7469;50.906;6.952;2023-05-07T12:54:41;25.60;36.80
14755;DHT22;7469;50.906;6.952;2023-05-07T12:57:10;25.50;37.10
14755;DHT22;7469;50.906;6.952;2023-05-07T12:59:39;25.40;37.40
14755;DHT22;7469;50.906;6.952;2023-05-07T13:02:09;25.30;37.60
14755;DHT22;7469;50.906;6.952;2023-05-07T13:04:37;25.30;37.90
14755;DHT22;7469;50.906;6.952;2023-05-07T13:07:05;25.20;38.00
14755;DHT22;7469;50.906;6.952;2023-05-07T13:09:33;25.20;38.50
14755;DHT22;7469;50.906;6.952;2023-05-07T13:12:01;25.10;38.90
14755;DHT22;7469;50.906;6.952;2023-05-07T13:14:29;25.10;39.60
14755;DHT22;7469;50.906;6.952;2023-05-07T13:16:57;25.00;40.10
14755;DHT22;7469;50.906;6.952;2023-05-07T13:19:26;25.00;41.00
14755;DHT22;7469;50.906;6.952;2023-05-07T13:21:57;25.00;42.00
14755;DHT22;7469;50.906;6.952;2023-05-07T13:24:25;25.00;43.00
14755;DHT22;7469;50.906;6.952;2023-05-07T13:26:52;25.00;43.90
14755;DHT22;7469;50.906;6.952;2023-05-07T13:29:21;25.00;44.10
14755;DHT22;7469;50.906;6.952;2023-05-07T13:31:55;25.00;44.30
14755;DHT22;7469;50.906;6.952;2023-05-07T13:34:25;25.00;44.50
14755;DHT22;7469;50.906;6.952;2023-05-07T13:36:53;24.90;44.40
14755;DHT22;7469;50.906;6.952;2023-05-07T13:39:21;24.80;44.50
14755;DHT22;7469;50.906;6.952;2023-05-07T13:41:49;24.80;45.00
14755;DHT22;7469;50.906;6.952;2023-05-07T13:44:17;24.80;45.20
14755;DHT22;7469;50.906;6.952;2023-05-07T13:46:45;24.90;46.10
14755;DHT22;7469;50.906;6.952;2023-05-07T13:49:13;24.90;45.80
14755;DHT22;7469;50.906;6.952;2023-05-07T13:51:43;24.90;46.10
14755;DHT22;7469;50.906;6.952;2023-05-07T13:54:11;25.00;46.50
14755;DHT22;7469;50.906;6.952;2023-05-07T13:56:39;25.00;46.80
14755;DHT22;7469;50.906;6.952;2023-05-07T13:59:07;25.10;47.30
14755;DHT22;7469;50.906;6.952;2023-05-07T14:01:35;25.10;47.80
14755;DHT22;7469;50.906;6.952;2023-05-07T14:04:03;25.10;48.30
14755;DHT22;7469;50.906;6.952;2023-05-07T14:06:31;25.10;48.90
14755;DHT22;7469;50.906;6.952;2023-05-07T14:09:00;25.00;49.70
14755;DHT22;7469;50.906;6.952;2023-05-07T14:11:28;25.00;50.50
14755;DHT22;7469;50.906;6.952;2023-05-07T14:13:58;24.90;51.40
14755;DHT22;7469;50.906;6.952;2023-05-07T14:16:26;24.90;52.20
14755;DHT22;7469;50.906;6.952;2023-05-07T14:18:54;24.90;52.90
14755;DHT22;7469;50.906;6.952;2023-05-07T14:21:24;24.90;53.40
14755;DHT22;7469;50.906;6.952;2023-05-07T14:23:52;24.80;53.70
14755;DHT22;7469;50.906;6.952;2023-05-07T14:26:21;24.80;54.30
14755;DHT22;7469;50.906;6.952;2023-05-07T14:28:50;24.70;54.90
14755;DHT22;7469;50.906;6.952;2023-05-07T14:31:17;24.70;55.60
14755;DHT22;7469;50.906;6.952;2023-05-07T14:33:46;24.50;56.50
14755;DHT22;7469;50.906;6.952;2023-05-07T14:36:13;24.50;57.30
14755;DHT22;7469;50.906;6.952;2023-05-07T14:38:42;24.30;58.00
14755;DHT22;7469;50.906;6.952;2023-05-07T14:41:10;24.20;58.70
14755;DHT22;7469;50.906;6.952;2023-05-07T14:43:39;24.10;59.50
14755;DHT22;7469;50.906;6.952;2023-05-07T14:46:07;24.00;60.50
14755;DHT22;7469;50.906;6.952;2023-05-07T14:48:35;23.80;61.30
14755;DHT22;7469;50.906;6.952;2023-05-07T14:51:03;23.70;62.40
14755;DHT22;7469;50.906;6.952;2023-05-07T14:53:31;23.70;63.60
14755;DHT22;7469;50.906;6.952;2023-05-07T14:55:59;23.70;64.60
14755;DHT22;7469;50.906;6.952;2023-05-07T14:58:27;23.70;65.30
14755;DHT22;7469;50.906;6.952;2023-05-07T15:00:57;23.70;66.00
14755;DHT22;7469;50.906;6.952;2023-05-07T15:03:25;23.70;66.40
14755;DHT22;7469;50.906;6.952;2023-05-07T15:05:53;23.70;67.40
14755;DHT22;7469;50.906;6.952;2023-05-07T15:08:21;23.70;68.30
14755;DHT22;7469;50.906;6.952;2023-05-07T15:10:49;23.60;70.30
14755;DHT22;7469;50.906;6.952;2023-05-07T15:13:17;23.40;71.20
14755;DHT22;7469;50.906;6.952;2023-05-07T15:15:45;23.40;73.10
14755;DHT22;7469;50.906;6.952;2023-05-07T15:18:15;23.30;74.80
14755;DHT22;7469;50.906;6.952;2023-05-07T15:20:43;23.20;76.30
14755;DHT22;7469;50.906;6.952;2023-05-07T15:23:11;23.20;77.70
14755;DHT22;7469;50.906;6.952;2023-05-07T15:25:40;23.20;78.70
14755;DHT22;7469;50.906;6.952;2023-05-07T15:28:08;23.20;79.70
14755;DHT22;7469;50.906;6.952;2023-05-07T15:30:36;23.30;80.50
14755;DHT22;7469;50.906;6.952;2023-05-07T15:33:04;23.30;81.60
14755;DHT22;7469;50.906;6.952;2023-05-07T15:35:33;23.40;82.20
14755;DHT22;7469;50.906;6.952;2023-05-07T15:38:01;23.40;82.00
14755;DHT22;7469;50.906;6.952;2023-05-07T15:40:30;23.40;81.80
14755;DHT22;7469;50.906;6.952;2023-05-07T15:42:59;23.40;81.40
14755;DHT22;7469;50.906;6.952;2023-05-07T15:45:28;23.40;80.70
14755;DHT22;7469;50.906;6.952;2023-05-07T15:47:56;23.30;80.20
14755;DHT22;7469;50.906;6.952;2023-05-07T15:50:25;23.30;80.30
14755;DHT22;7469;50.906;6.952;2023-05-07T15:52:54;23.30;80.60
14755;DHT22;7469;50.906;6.952;2023-05-07T15:55:22;23.20;80.90
14755;DHT22;7469;50.906;6.952;2023-05-07T15:57:50;23.20;81.40
14755;DHT22;7469;50.906;6.952;2023-05-07T16:00:21;23.20;82.00
14755;DHT22;7469;50.906;6.952;2023-05-07T16:02:49;23.20;82.60